< < Back
Terminal Aerodrome Forecast


Current Version              Previous Versions:   1  2  3  4  5  6  7  8  9  

Terminal Aerodrome Forecast

293
FTUS44 KBMX 251100
TAFBHM
TAF
KBHM 251123Z 2512/2612 00000KT P6SM SKC
     FM251400 34006KT P6SM SKC=

Latest METAR

505
SAUS70 KWBC 251158
MTRBHM
METAR KBHM 251153Z 00000KT 10SM CLR 07/06 A3012 RMK AO2 SLP199 T00670056
10094 20067 51008


USA.gov is the U.S. government's official web portal to all federal, state and local government web resources and services.